sensor_id;sensor_type;location;lat;lon;timestamp;pressure;altitude;pressure_sealevel;temperature
58929;BMP180;44713;53.378;10.022;2023-02-28T00:00:13;102879.00;;;2.10
58929;BMP180;44713;53.378;10.022;2023-02-28T00:02:41;102884.00;;;2.10
58929;BMP180;44713;53.378;10.022;2023-02-28T00:05:07;102887.00;;;2.10
58929;BMP180;44713;53.378;10.022;2023-02-28T00:07:33;102876.00;;;1.90
58929;BMP180;44713;53.378;10.022;2023-02-28T00:09:59;102872.00;;;1.90
58929;BMP180;44713;53.378;10.022;2023-02-28T00:12:25;102875.00;;;1.90
58929;BMP180;44713;53.378;10.022;2023-02-28T00:14:51;102875.00;;;1.90
58929;BMP180;44713;53.378;10.022;2023-02-28T00:17:16;102875.00;;;1.80
58929;BMP180;44713;53.378;10.022;2023-02-28T00:19:43;102880.00;;;1.80
58929;BMP180;44713;53.378;10.022;2023-02-28T00:22:09;102883.00;;;1.70
58929;BMP180;44713;53.378;10.022;2023-02-28T00:24:34;102886.00;;;1.70
58929;BMP180;44713;53.378;10.022;2023-02-28T00:27:00;102890.00;;;1.60
58929;BMP180;44713;53.378;10.022;2023-02-28T00:29:25;102883.00;;;1.50
58929;BMP180;44713;53.378;10.022;2023-02-28T00:31:50;102880.00;;;1.40
58929;BMP180;44713;53.378;10.022;2023-02-28T00:34:16;102871.00;;;1.40
58929;BMP180;44713;53.378;10.022;2023-02-28T00:36:41;102878.00;;;1.30
58929;BMP180;44713;53.378;10.022;2023-02-28T00:39:10;102872.00;;;1.30
58929;BMP180;44713;53.378;10.022;2023-02-28T00:41:36;102882.00;;;1.30
58929;BMP180;44713;53.378;10.022;2023-02-28T00:44:01;102885.00;;;1.20
58929;BMP180;44713;53.378;10.022;2023-02-28T00:46:27;102879.00;;;1.20
58929;BMP180;44713;53.378;10.022;2023-02-28T00:48:52;102887.00;;;1.10
58929;BMP180;44713;53.378;10.022;2023-02-28T00:51:17;102883.00;;;1.10
58929;BMP180;44713;53.378;10.022;2023-02-28T00:53:43;102896.00;;;1.00
58929;BMP180;44713;53.378;10.022;2023-02-28T00:56:08;102885.00;;;1.00
58929;BMP180;44713;53.378;10.022;2023-02-28T00:58:33;102890.00;;;0.90
58929;BMP180;44713;53.378;10.022;2023-02-28T01:00:59;102899.00;;;0.90
58929;BMP180;44713;53.378;10.022;2023-02-28T01:03:25;102911.00;;;0.90
58929;BMP180;44713;53.378;10.022;2023-02-28T01:05:51;102898.00;;;0.90
58929;BMP180;44713;53.378;10.022;2023-02-28T01:08:18;102907.00;;;0.80
58929;BMP180;44713;53.378;10.022;2023-02-28T01:10:43;102900.00;;;0.60
58929;BMP180;44713;53.378;10.022;2023-02-28T01:13:09;102901.00;;;0.50
58929;BMP180;44713;53.378;10.022;2023-02-28T01:15:36;102899.00;;;0.30
58929;BMP180;44713;53.378;10.022;2023-02-28T01:18:03;102901.00;;;0.30
58929;BMP180;44713;53.378;10.022;2023-02-28T01:20:30;102899.00;;;0.30
58929;BMP180;44713;53.378;10.022;2023-02-28T01:22:55;102905.00;;;0.30
58929;BMP180;44713;53.378;10.022;2023-02-28T01:25:21;102899.00;;;0.40
58929;BMP180;44713;53.378;10.022;2023-02-28T01:27:46;102891.00;;;0.40
58929;BMP180;44713;53.378;10.022;2023-02-28T01:30:11;102901.00;;;0.40
58929;BMP180;44713;53.378;10.022;2023-02-28T01:32:37;102905.00;;;0.40
58929;BMP180;44713;53.378;10.022;2023-02-28T01:35:02;102903.00;;;0.30
58929;BMP180;44713;53.378;10.022;2023-02-28T01:37:27;102899.00;;;0.20
58929;BMP180;44713;53.378;10.022;2023-02-28T01:39:53;102902.00;;;0.10
58929;BMP180;44713;53.378;10.022;2023-02-28T01:42:19;102903.00;;;0.10
58929;BMP180;44713;53.378;10.022;2023-02-28T01:47:34;102901.00;;;0.10
58929;BMP180;44713;53.378;10.022;2023-02-28T01:50:02;102898.00;;;0.10
58929;BMP180;44713;53.378;10.022;2023-02-28T01:52:30;102901.00;;;0.10
58929;BMP180;44713;53.378;10.022;2023-02-28T01:54:59;102900.00;;;0.00
58929;BMP180;44713;53.378;10.022;2023-02-28T01:57:30;102903.00;;;0.00
58929;BMP180;44713;53.378;10.022;2023-02-28T02:00:06;102897.00;;;0.00
58929;BMP180;44713;53.378;10.022;2023-02-28T02:02:38;102903.00;;;-0.10
58929;BMP180;44713;53.378;10.022;2023-02-28T02:05:07;102895.00;;;-0.10
58929;BMP180;44713;53.378;10.022;2023-02-28T02:07:35;102898.00;;;-0.10
58929;BMP180;44713;53.378;10.022;2023-02-28T02:10:10;102896.00;;;-0.10
58929;BMP180;44713;53.378;10.022;2023-02-28T02:15:35;102903.00;;;-0.10
58929;BMP180;44713;53.378;10.022;2023-02-28T02:18:14;102897.00;;;-0.20
58929;BMP180;44713;53.378;10.022;2023-02-28T02:20:46;102885.00;;;-0.20
58929;BMP180;44713;53.378;10.022;2023-02-28T02:27:08;102904.00;;;-0.20
58929;BMP180;44713;53.378;10.022;2023-02-28T02:31:49;102885.00;;;-0.30
58929;BMP180;44713;53.378;10.022;2023-02-28T02:37:13;102881.00;;;-0.30
58929;BMP180;44713;53.378;10.022;2023-02-28T02:42:50;102885.00;;;-0.50
58929;BMP180;44713;53.378;10.022;2023-02-28T02:47:49;102900.00;;;-0.60
58929;BMP180;44713;53.378;10.022;2023-02-28T02:50:21;102888.00;;;-0.70
58929;BMP180;44713;53.378;10.022;2023-02-28T02:52:52;102899.00;;;-0.80
58929;BMP180;44713;53.378;10.022;2023-02-28T02:55:20;102890.00;;;-0.80
58929;BMP180;44713;53.378;10.022;2023-02-28T02:57:51;102885.00;;;-0.80
58929;BMP180;44713;53.378;10.022;2023-02-28T03:00:20;102899.00;;;-0.70
58929;BMP180;44713;53.378;10.022;2023-02-28T03:02:48;102890.00;;;-0.80
58929;BMP180;44713;53.378;10.022;2023-02-28T03:05:23;102891.00;;;-0.80
58929;BMP180;44713;53.378;10.022;2023-02-28T03:07:49;102897.00;;;-0.80
58929;BMP180;44713;53.378;10.022;2023-02-28T03:10:37;102881.00;;;-0.70
58929;BMP180;44713;53.378;10.022;2023-02-28T03:13:12;102891.00;;;-0.80
58929;BMP180;44713;53.378;10.022;2023-02-28T03:15:55;102881.00;;;-0.80
58929;BMP180;44713;53.378;10.022;2023-02-28T03:23:45;102874.00;;;-0.80
58929;BMP180;44713;53.378;10.022;2023-02-28T03:26:21;102887.00;;;-0.90
58929;BMP180;44713;53.378;10.022;2023-02-28T03:28:56;102882.00;;;-1.10
58929;BMP180;44713;53.378;10.022;2023-02-28T03:31:38;102887.00;;;-1.20
58929;BMP180;44713;53.378;10.022;2023-02-28T03:34:14;102884.00;;;-1.30
58929;BMP180;44713;53.378;10.022;2023-02-28T03:36:49;102891.00;;;-1.30
58929;BMP180;44713;53.378;10.022;2023-02-28T03:39:34;102888.00;;;-1.30
58929;BMP180;44713;53.378;10.022;2023-02-28T03:42:04;102896.00;;;-1.30
58929;BMP180;44713;53.378;10.022;2023-02-28T03:44:38;102908.00;;;-1.20
58929;BMP180;44713;53.378;10.022;2023-02-28T03:47:12;102910.00;;;-1.20
58929;BMP180;44713;53.378;10.022;2023-02-28T03:49:47;102902.00;;;-1.20
58929;BMP180;44713;53.378;10.022;2023-02-28T03:52:14;102907.00;;;-1.20
58929;BMP180;44713;53.378;10.022;2023-02-28T03:54:45;102905.00;;;-1.20
58929;BMP180;44713;53.378;10.022;2023-02-28T03:57:37;102914.00;;;-1.40
58929;BMP180;44713;53.378;10.022;2023-02-28T04:00:21;102910.00;;;-1.40
58929;BMP180;44713;53.378;10.022;2023-02-28T04:02:50;102918.00;;;-1.40
58929;BMP180;44713;53.378;10.022;2023-02-28T04:05:19;102907.00;;;-1.40
58929;BMP180;44713;53.378;10.022;2023-02-28T04:07:44;102915.00;;;-1.40
58929;BMP180;44713;53.378;10.022;2023-02-28T04:10:11;102912.00;;;-1.40
58929;BMP180;44713;53.378;10.022;2023-02-28T04:12:37;102908.00;;;-1.50
58929;BMP180;44713;53.378;10.022;2023-02-28T04:15:02;102909.00;;;-1.50
58929;BMP180;44713;53.378;10.022;2023-02-28T04:17:28;102918.00;;;-1.60
58929;BMP180;44713;53.378;10.022;2023-02-28T04:19:53;102910.00;;;-1.60
58929;BMP180;44713;53.378;10.022;2023-02-28T04:22:22;102925.00;;;-1.60
58929;BMP180;44713;53.378;10.022;2023-02-28T04:24:47;102911.00;;;-1.60
58929;BMP180;44713;53.378;10.022;2023-02-28T04:27:13;102912.00;;;-1.60
58929;BMP180;44713;53.378;10.022;2023-02-28T04:29:40;102912.00;;;-1.60
58929;BMP180;44713;53.378;10.022;2023-02-28T04:32:10;102904.00;;;-1.60
58929;BMP180;44713;53.378;10.022;2023-02-28T04:34:35;102916.00;;;-1.60
58929;BMP180;44713;53.378;10.022;2023-02-28T04:37:02;102900.00;;;-1.60
58929;BMP180;44713;53.378;10.022;2023-02-28T04:39:28;102905.00;;;-1.50
58929;BMP180;44713;53.378;10.022;2023-02-28T04:41:53;102904.00;;;-1.60
58929;BMP180;44713;53.378;10.022;2023-02-28T04:44:19;102903.00;;;-1.60
58929;BMP180;44713;53.378;10.022;2023-02-28T04:46:47;102908.00;;;-1.60
58929;BMP180;44713;53.378;10.022;2023-02-28T04:49:13;102906.00;;;-1.70
58929;BMP180;44713;53.378;10.022;2023-02-28T04:51:39;102907.00;;;-1.80
58929;BMP180;44713;53.378;10.022;2023-02-28T04:54:05;102907.00;;;-1.70
58929;BMP180;44713;53.378;10.022;2023-02-28T04:56:31;102905.00;;;-1.70
58929;BMP180;44713;53.378;10.022;2023-02-28T04:58:57;102902.00;;;-1.70
58929;BMP180;44713;53.378;10.022;2023-02-28T05:01:24;102910.00;;;-1.70
58929;BMP180;44713;53.378;10.022;2023-02-28T05:03:51;102917.00;;;-1.70
58929;BMP180;44713;53.378;10.022;2023-02-28T05:06:18;102920.00;;;-1.70
58929;BMP180;44713;53.378;10.022;2023-02-28T05:08:43;102913.00;;;-1.70
58929;BMP180;44713;53.378;10.022;2023-02-28T05:11:18;102916.00;;;-1.80
58929;BMP180;44713;53.378;10.022;2023-02-28T05:13:45;102923.00;;;-1.90
58929;BMP180;44713;53.378;10.022;2023-02-28T05:16:10;102913.00;;;-1.80
58929;BMP180;44713;53.378;10.022;2023-02-28T05:18:36;102929.00;;;-1.80
58929;BMP180;44713;53.378;10.022;2023-02-28T05:21:02;102925.00;;;-1.80
58929;BMP180;44713;53.378;10.022;2023-02-28T05:23:27;102925.00;;;-1.80
58929;BMP180;44713;53.378;10.022;2023-02-28T05:25:53;102928.00;;;-1.90
58929;BMP180;44713;53.378;10.022;2023-02-28T05:28:19;102931.00;;;-1.90
58929;BMP180;44713;53.378;10.022;2023-02-28T05:30:45;102934.00;;;-1.90
58929;BMP180;44713;53.378;10.022;2023-02-28T05:33:11;102928.00;;;-1.90
58929;BMP180;44713;53.378;10.022;2023-02-28T05:35:38;102933.00;;;-1.90
58929;BMP180;44713;53.378;10.022;2023-02-28T05:38:04;102934.00;;;-1.90
58929;BMP180;44713;53.378;10.022;2023-02-28T05:40:29;102927.00;;;-1.90
58929;BMP180;44713;53.378;10.022;2023-02-28T05:42:54;102939.00;;;-1.80
58929;BMP180;44713;53.378;10.022;2023-02-28T05:45:20;102938.00;;;-1.90
58929;BMP180;44713;53.378;10.022;2023-02-28T05:47:45;102925.00;;;-1.90
58929;BMP180;44713;53.378;10.022;2023-02-28T05:50:11;102933.00;;;-1.90
58929;BMP180;44713;53.378;10.022;2023-02-28T05:52:36;102934.00;;;-2.00
58929;BMP180;44713;53.378;10.022;2023-02-28T05:55:03;102935.00;;;-2.00
58929;BMP180;44713;53.378;10.022;2023-02-28T05:57:28;102930.00;;;-2.00
58929;BMP180;44713;53.378;10.022;2023-02-28T05:59:54;102933.00;;;-1.90
58929;BMP180;44713;53.378;10.022;2023-02-28T06:02:19;102940.00;;;-2.00
58929;BMP180;44713;53.378;10.022;2023-02-28T06:04:45;102944.00;;;-2.00
58929;BMP180;44713;53.378;10.022;2023-02-28T06:07:11;102944.00;;;-2.10
58929;BMP180;44713;53.378;10.022;2023-02-28T06:09:36;102944.00;;;-2.10
58929;BMP180;44713;53.378;10.022;2023-02-28T06:12:04;102954.00;;;-2.10
58929;BMP180;44713;53.378;10.022;2023-02-28T06:14:31;102958.00;;;-2.10
58929;BMP180;44713;53.378;10.022;2023-02-28T06:16:58;102948.00;;;-2.10
58929;BMP180;44713;53.378;10.022;2023-02-28T06:19:24;102946.00;;;-2.10
58929;BMP180;44713;53.378;10.022;2023-02-28T06:21:51;102955.00;;;-2.10
58929;BMP180;44713;53.378;10.022;2023-02-28T06:24:18;102947.00;;;-2.10
58929;BMP180;44713;53.378;10.022;2023-02-28T06:26:44;102952.00;;;-2.10
58929;BMP180;44713;53.378;10.022;2023-02-28T06:29:09;102952.00;;;-2.10
58929;BMP180;44713;53.378;10.022;2023-02-28T06:31:34;102959.00;;;-2.10
58929;BMP180;44713;53.378;10.022;2023-02-28T06:34:00;102955.00;;;-2.10
58929;BMP180;44713;53.378;10.022;2023-02-28T06:36:25;102967.00;;;-2.10
58929;BMP180;44713;53.378;10.022;2023-02-28T06:38:51;102964.00;;;-2.10
58929;BMP180;44713;53.378;10.022;2023-02-28T06:41:21;102972.00;;;-2.10
58929;BMP180;44713;53.378;10.022;2023-02-28T06:43:47;102968.00;;;-2.10
58929;BMP180;44713;53.378;10.022;2023-02-28T06:46:13;102971.00;;;-2.10
58929;BMP180;44713;53.378;10.022;2023-02-28T06:48:39;102970.00;;;-2.10
58929;BMP180;44713;53.378;10.022;2023-02-28T06:51:07;102965.00;;;-2.00
58929;BMP180;44713;53.378;10.022;2023-02-28T06:53:33;102977.00;;;-2.10
58929;BMP180;44713;53.378;10.022;2023-02-28T06:55:59;102969.00;;;-2.20
58929;BMP180;44713;53.378;10.022;2023-02-28T06:58:25;102977.00;;;-2.20
58929;BMP180;44713;53.378;10.022;2023-02-28T07:00:51;102976.00;;;-2.10
58929;BMP180;44713;53.378;10.022;2023-02-28T07:03:17;102973.00;;;-2.10
58929;BMP180;44713;53.378;10.022;2023-02-28T07:05:44;102967.00;;;-2.10
58929;BMP180;44713;53.378;10.022;2023-02-28T07:08:09;102983.00;;;-2.00
58929;BMP180;44713;53.378;10.022;2023-02-28T07:10:38;102971.00;;;-2.00
58929;BMP180;44713;53.378;10.022;2023-02-28T07:13:04;102975.00;;;-2.00
58929;BMP180;44713;53.378;10.022;2023-02-28T07:15:30;102981.00;;;-2.00
58929;BMP180;44713;53.378;10.022;2023-02-28T07:17:56;102982.00;;;-2.00
58929;BMP180;44713;53.378;10.022;2023-02-28T07:20:22;102984.00;;;-1.90
58929;BMP180;44713;53.378;10.022;2023-02-28T07:22:48;102984.00;;;-1.90
58929;BMP180;44713;53.378;10.022;2023-02-28T07:25:21;102984.00;;;-1.90
58929;BMP180;44713;53.378;10.022;2023-02-28T07:27:46;102981.00;;;-1.80
58929;BMP180;44713;53.378;10.022;2023-02-28T07:30:12;102976.00;;;-1.80
58929;BMP180;44713;53.378;10.022;2023-02-28T07:32:37;102978.00;;;-1.70
58929;BMP180;44713;53.378;10.022;2023-02-28T07:35:03;102982.00;;;-1.60
58929;BMP180;44713;53.378;10.022;2023-02-28T07:37:28;102980.00;;;-1.50
58929;BMP180;44713;53.378;10.022;2023-02-28T07:39:57;102980.00;;;-1.40
58929;BMP180;44713;53.378;10.022;2023-02-28T07:42:22;102980.00;;;-1.40
58929;BMP180;44713;53.378;10.022;2023-02-28T07:44:48;102974.00;;;-1.30
58929;BMP180;44713;53.378;10.022;2023-02-28T07:47:13;102980.00;;;-1.20
58929;BMP180;44713;53.378;10.022;2023-02-28T07:49:38;102978.00;;;-1.20
58929;BMP180;44713;53.378;10.022;2023-02-28T07:52:06;102969.00;;;-1.10
58929;BMP180;44713;53.378;10.022;2023-02-28T07:54:32;102976.00;;;-1.00
58929;BMP180;44713;53.378;10.022;2023-02-28T07:56:58;102980.00;;;-1.00
58929;BMP180;44713;53.378;10.022;2023-02-28T07:59:23;102976.00;;;-1.00
58929;BMP180;44713;53.378;10.022;2023-02-28T08:01:49;102974.00;;;-0.90
58929;BMP180;44713;53.378;10.022;2023-02-28T08:04:16;102980.00;;;-0.90
58929;BMP180;44713;53.378;10.022;2023-02-28T08:06:42;102976.00;;;-0.80
58929;BMP180;44713;53.378;10.022;2023-02-28T08:09:10;102982.00;;;-0.70
58929;BMP180;44713;53.378;10.022;2023-02-28T08:11:36;102982.00;;;-0.50
58929;BMP180;44713;53.378;10.022;2023-02-28T08:14:02;102980.00;;;-0.40
58929;BMP180;44713;53.378;10.022;2023-02-28T08:16:27;102979.00;;;-0.30
58929;BMP180;44713;53.378;10.022;2023-02-28T08:18:52;102979.00;;;-0.30
58929;BMP180;44713;53.378;10.022;2023-02-28T08:21:19;102978.00;;;-0.20
58929;BMP180;44713;53.378;10.022;2023-02-28T08:23:49;102990.00;;;-0.10
58929;BMP180;44713;53.378;10.022;2023-02-28T08:26:16;102984.00;;;0.10
58929;BMP180;44713;53.378;10.022;2023-02-28T08:28:41;102980.00;;;0.10
58929;BMP180;44713;53.378;10.022;2023-02-28T08:31:11;102986.00;;;0.30
58929;BMP180;44713;53.378;10.022;2023-02-28T08:33:37;102989.00;;;0.40
58929;BMP180;44713;53.378;10.022;2023-02-28T08:36:04;102986.00;;;0.50
58929;BMP180;44713;53.378;10.022;2023-02-28T08:38:30;102992.00;;;0.60
58929;BMP180;44713;53.378;10.022;2023-02-28T08:41:05;102989.00;;;0.70
58929;BMP180;44713;53.378;10.022;2023-02-28T08:43:33;102989.00;;;0.80
58929;BMP180;44713;53.378;10.022;2023-02-28T08:45:59;102985.00;;;0.90
58929;BMP180;44713;53.378;10.022;2023-02-28T08:48:29;102979.00;;;1.10
58929;BMP180;44713;53.378;10.022;2023-02-28T08:50:59;102984.00;;;1.30
58929;BMP180;44713;53.378;10.022;2023-02-28T08:53:26;102986.00;;;1.40
58929;BMP180;44713;53.378;10.022;2023-02-28T08:56:06;102980.00;;;1.50
58929;BMP180;44713;53.378;10.022;2023-02-28T08:58:33;102986.00;;;1.70
58929;BMP180;44713;53.378;10.022;2023-02-28T09:00:59;102981.00;;;1.80
58929;BMP180;44713;53.378;10.022;2023-02-28T09:03:25;102979.00;;;1.90
58929;BMP180;44713;53.378;10.022;2023-02-28T09:05:56;102984.00;;;2.00
58929;BMP180;44713;53.378;10.022;2023-02-28T09:08:24;102983.00;;;2.10
58929;BMP180;44713;53.378;10.022;2023-02-28T09:10:49;102982.00;;;2.10
58929;BMP180;44713;53.378;10.022;2023-02-28T09:13:15;102982.00;;;2.20
58929;BMP180;44713;53.378;10.022;2023-02-28T09:15:40;102989.00;;;2.40
58929;BMP180;44713;53.378;10.022;2023-02-28T09:18:05;102976.00;;;2.60
58929;BMP180;44713;53.378;10.022;2023-02-28T09:20:31;102976.00;;;2.70
58929;BMP180;44713;53.378;10.022;2023-02-28T09:22:56;102975.00;;;2.80
58929;BMP180;44713;53.378;10.022;2023-02-28T09:25:21;102975.00;;;3.00
58929;BMP180;44713;53.378;10.022;2023-02-28T09:27:47;102974.00;;;3.30
58929;BMP180;44713;53.378;10.022;2023-02-28T09:30:13;102972.00;;;3.40
58929;BMP180;44713;53.378;10.022;2023-02-28T09:32:38;102975.00;;;3.50
58929;BMP180;44713;53.378;10.022;2023-02-28T09:35:04;102981.00;;;3.60
58929;BMP180;44713;53.378;10.022;2023-02-28T09:37:30;102978.00;;;3.80
58929;BMP180;44713;53.378;10.022;2023-02-28T09:39:56;102976.00;;;3.90
58929;BMP180;44713;53.378;10.022;2023-02-28T09:42:28;102976.00;;;4.10
58929;BMP180;44713;53.378;10.022;2023-02-28T09:44:56;102967.00;;;4.20
58929;BMP180;44713;53.378;10.022;2023-02-28T09:47:46;102975.00;;;4.40
58929;BMP180;44713;53.378;10.022;2023-02-28T09:52:52;102971.00;;;4.70
58929;BMP180;44713;53.378;10.022;2023-02-28T09:55:20;102970.00;;;4.80
58929;BMP180;44713;53.378;10.022;2023-02-28T09:57:48;102965.00;;;4.90
58929;BMP180;44713;53.378;10.022;2023-02-28T10:00:28;102967.00;;;5.10
58929;BMP180;44713;53.378;10.022;2023-02-28T10:03:23;102975.00;;;5.10
58929;BMP180;44713;53.378;10.022;2023-02-28T10:05:53;102978.00;;;5.30
58929;BMP180;44713;53.378;10.022;2023-02-28T10:08:25;102980.00;;;5.50
58929;BMP180;44713;53.378;10.022;2023-02-28T10:10:55;102970.00;;;5.60
58929;BMP180;44713;53.378;10.022;2023-02-28T10:13:34;102970.00;;;5.70
58929;BMP180;44713;53.378;10.022;2023-02-28T10:16:11;102975.00;;;5.70
58929;BMP180;44713;53.378;10.022;2023-02-28T10:18:46;102983.00;;;5.80
58929;BMP180;44713;53.378;10.022;2023-02-28T10:21:19;102971.00;;;6.00
58929;BMP180;44713;53.378;10.022;2023-02-28T10:23:46;102974.00;;;6.10
58929;BMP180;44713;53.378;10.022;2023-02-28T10:26:14;102980.00;;;6.20
58929;BMP180;44713;53.378;10.022;2023-02-28T10:28:44;102974.00;;;6.30
58929;BMP180;44713;53.378;10.022;2023-02-28T10:31:20;102972.00;;;6.50
58929;BMP180;44713;53.378;10.022;2023-02-28T10:33:46;102966.00;;;6.60
58929;BMP180;44713;53.378;10.022;2023-02-28T10:36:15;102966.00;;;6.60
58929;BMP180;44713;53.378;10.022;2023-02-28T10:38:42;102960.00;;;6.70
58929;BMP180;44713;53.378;10.022;2023-02-28T10:41:18;102964.00;;;7.00
58929;BMP180;44713;53.378;10.022;2023-02-28T10:43:51;102965.00;;;7.10
58929;BMP180;44713;53.378;10.022;2023-02-28T10:46:18;102967.00;;;7.30
58929;BMP180;44713;53.378;10.022;2023-02-28T10:49:13;102964.00;;;7.40
58929;BMP180;44713;53.378;10.022;2023-02-28T10:51:40;102958.00;;;7.40
58929;BMP180;44713;53.378;10.022;2023-02-28T10:54:15;102960.00;;;7.50
58929;BMP180;44713;53.378;10.022;2023-02-28T10:56:41;102955.00;;;7.70
58929;BMP180;44713;53.378;10.022;2023-02-28T10:59:27;102966.00;;;7.80
58929;BMP180;44713;53.378;10.022;2023-02-28T11:01:53;102956.00;;;7.90
58929;BMP180;44713;53.378;10.022;2023-02-28T11:07:04;102961.00;;;7.90
58929;BMP180;44713;53.378;10.022;2023-02-28T11:09:34;102961.00;;;7.90
58929;BMP180;44713;53.378;10.022;2023-02-28T11:12:02;102957.00;;;7.80
58929;BMP180;44713;53.378;10.022;2023-02-28T11:14:31;102958.00;;;8.10
58929;BMP180;44713;53.378;10.022;2023-02-28T11:17:11;102962.00;;;8.30
58929;BMP180;44713;53.378;10.022;2023-02-28T11:19:43;102965.00;;;8.10
58929;BMP180;44713;53.378;10.022;2023-02-28T11:22:09;102960.00;;;8.30
58929;BMP180;44713;53.378;10.022;2023-02-28T11:24:42;102964.00;;;8.50
58929;BMP180;44713;53.378;10.022;2023-02-28T11:27:40;102954.00;;;8.60
58929;BMP180;44713;53.378;10.022;2023-02-28T11:30:24;102955.00;;;8.70
58929;BMP180;44713;53.378;10.022;2023-02-28T11:33:00;102953.00;;;8.80
58929;BMP180;44713;53.378;10.022;2023-02-28T11:37:53;102956.00;;;9.10
58929;BMP180;44713;53.378;10.022;2023-02-28T11:40:27;102952.00;;;9.20
58929;BMP180;44713;53.378;10.022;2023-02-28T11:43:01;102952.00;;;8.80
58929;BMP180;44713;53.378;10.022;2023-02-28T11:48:21;102954.00;;;9.00
58929;BMP180;44713;53.378;10.022;2023-02-28T11:51:00;102950.00;;;8.90
58929;BMP180;44713;53.378;10.022;2023-02-28T11:56:33;102943.00;;;9.00
58929;BMP180;44713;53.378;10.022;2023-02-28T11:59:28;102928.00;;;9.00
58929;BMP180;44713;53.378;10.022;2023-02-28T12:08:05;102932.00;;;9.40
58929;BMP180;44713;53.378;10.022;2023-02-28T12:11:06;102930.00;;;9.30
58929;BMP180;44713;53.378;10.022;2023-02-28T12:26:44;102911.00;;;9.40
58929;BMP180;44713;53.378;10.022;2023-02-28T12:31:38;102914.00;;;9.50
58929;BMP180;44713;53.378;10.022;2023-02-28T12:34:13;102901.00;;;9.30
58929;BMP180;44713;53.378;10.022;2023-02-28T12:36:42;102905.00;;;9.50
58929;BMP180;44713;53.378;10.022;2023-02-28T12:39:16;102908.00;;;9.50
58929;BMP180;44713;53.378;10.022;2023-02-28T12:41:48;102899.00;;;9.60
58929;BMP180;44713;53.378;10.022;2023-02-28T12:44:21;102897.00;;;9.50
58929;BMP180;44713;53.378;10.022;2023-02-28T12:46:57;102896.00;;;9.20
58929;BMP180;44713;53.378;10.022;2023-02-28T12:49:29;102897.00;;;9.10
58929;BMP180;44713;53.378;10.022;2023-02-28T12:51:57;102897.00;;;8.90
58929;BMP180;44713;53.378;10.022;2023-02-28T12:54:47;102884.00;;;9.00
58929;BMP180;44713;53.378;10.022;2023-02-28T12:57:21;102879.00;;;9.20
58929;BMP180;44713;53.378;10.022;2023-02-28T12:59:55;102875.00;;;9.00
58929;BMP180;44713;53.378;10.022;2023-02-28T13:08:42;102870.00;;;9.00
58929;BMP180;44713;53.378;10.022;2023-02-28T13:11:38;102858.00;;;9.30
58929;BMP180;44713;53.378;10.022;2023-02-28T13:14:13;102850.00;;;9.50
58929;BMP180;44713;53.378;10.022;2023-02-28T13:19:17;102835.00;;;9.90
58929;BMP180;44713;53.378;10.022;2023-02-28T13:21:44;102842.00;;;9.70
58929;BMP180;44713;53.378;10.022;2023-02-28T13:24:10;102848.00;;;9.80
58929;BMP180;44713;53.378;10.022;2023-02-28T13:42:48;102846.00;;;9.80
58929;BMP180;44713;53.378;10.022;2023-02-28T13:45:28;102849.00;;;9.80
58929;BMP180;44713;53.378;10.022;2023-02-28T13:48:15;102857.00;;;10.00
58929;BMP180;44713;53.378;10.022;2023-02-28T13:50:42;102854.00;;;9.80
58929;BMP180;44713;53.378;10.022;2023-02-28T13:56:03;102854.00;;;9.50
58929;BMP180;44713;53.378;10.022;2023-02-28T13:59:07;102854.00;;;9.60
58929;BMP180;44713;53.378;10.022;2023-02-28T14:07:08;102859.00;;;9.50
58929;BMP180;44713;53.378;10.022;2023-02-28T14:09:40;102848.00;;;9.70
58929;BMP180;44713;53.378;10.022;2023-02-28T14:17:55;102860.00;;;9.70
58929;BMP180;44713;53.378;10.022;2023-02-28T14:20:22;102851.00;;;9.60
58929;BMP180;44713;53.378;10.022;2023-02-28T14:23:02;102857.00;;;9.50
58929;BMP180;44713;53.378;10.022;2023-02-28T14:31:09;102862.00;;;9.10
58929;BMP180;44713;53.378;10.022;2023-02-28T14:34:17;102862.00;;;9.00
58929;BMP180;44713;53.378;10.022;2023-02-28T14:36:46;102859.00;;;8.90
58929;BMP180;44713;53.378;10.022;2023-02-28T14:39:18;102861.00;;;8.90
58929;BMP180;44713;53.378;10.022;2023-02-28T14:41:46;102864.00;;;9.00
58929;BMP180;44713;53.378;10.022;2023-02-28T14:44:20;102859.00;;;9.10
58929;BMP180;44713;53.378;10.022;2023-02-28T14:46:52;102861.00;;;9.20
58929;BMP180;44713;53.378;10.022;2023-02-28T14:49:21;102855.00;;;9.30
58929;BMP180;44713;53.378;10.022;2023-02-28T14:51:50;102856.00;;;9.20
58929;BMP180;44713;53.378;10.022;2023-02-28T14:54:26;102854.00;;;9.10
58929;BMP180;44713;53.378;10.022;2023-02-28T14:56:51;102853.00;;;8.90
58929;BMP180;44713;53.378;10.022;2023-02-28T14:59:29;102856.00;;;8.60
58929;BMP180;44713;53.378;10.022;2023-02-28T15:04:39;102860.00;;;8.50
58929;BMP180;44713;53.378;10.022;2023-02-28T15:07:08;102860.00;;;8.60
58929;BMP180;44713;53.378;10.022;2023-02-28T15:09:34;102864.00;;;8.70
58929;BMP180;44713;53.378;10.022;2023-02-28T15:11:59;102860.00;;;8.60
58929;BMP180;44713;53.378;10.022;2023-02-28T15:14:26;102859.00;;;8.40
58929;BMP180;44713;53.378;10.022;2023-02-28T15:17:02;102859.00;;;8.50
58929;BMP180;44713;53.378;10.022;2023-02-28T15:19:37;102858.00;;;8.60
58929;BMP180;44713;53.378;10.022;2023-02-28T15:22:11;102859.00;;;8.70
58929;BMP180;44713;53.378;10.022;2023-02-28T15:24:39;102846.00;;;8.70
58929;BMP180;44713;53.378;10.022;2023-02-28T15:27:13;102857.00;;;8.70
58929;BMP180;44713;53.378;10.022;2023-02-28T15:29:49;102843.00;;;8.60
58929;BMP180;44713;53.378;10.022;2023-02-28T15:32:31;102847.00;;;8.50
58929;BMP180;44713;53.378;10.022;2023-02-28T15:34:58;102838.00;;;8.50
58929;BMP180;44713;53.378;10.022;2023-02-28T15:37:39;102838.00;;;8.50
58929;BMP180;44713;53.378;10.022;2023-02-28T15:40:31;102843.00;;;8.40
58929;BMP180;44713;53.378;10.022;2023-02-28T15:43:13;102830.00;;;8.30
58929;BMP180;44713;53.378;10.022;2023-02-28T15:45:55;102834.00;;;8.50
58929;BMP180;44713;53.378;10.022;2023-02-28T15:48:30;102838.00;;;8.30
58929;BMP180;44713;53.378;10.022;2023-02-28T15:53:54;102834.00;;;8.30
58929;BMP180;44713;53.378;10.022;2023-02-28T15:59:02;102834.00;;;8.20